LFBY/XDA METAR and TAF weather

Enter ICAO airport designator
Station Type Date Time Source
LFBY METAR 2022/01/29 14:00 UTC NOAA

LFBY 291400Z AUTO 05005KT 3000 // OVC003 02/02 Q1037


Station Type Date Time Source
LFBY Decoded METAR 2022/01/29 14:00 UTC NOAA

Dax, France (LFBY) 43-41N 001-04W 32M
Jan 29, 2022 - 09:00 AM EST / 2022.01.29 1400 UTC
Wind: from the NE (050 degrees) at 6 MPH (5 KT):0
Visibility: 1 mile(s):0
Sky conditions: overcast
Temperature: 35 F (2 C)
Windchill: 30 F (-1 C):1
Dew Point: 35 F (2 C)
Relative Humidity: 100%
Pressure (altimeter): 30.62 in. Hg (1037 hPa)
ob: LFBY 291400Z AUTO 05005KT 3000 // OVC003 02/02 Q1037
cycle: 14

Station Type Date Time Source
LFBY TAF UTC NOAA

Error!

Example: see airport list